Time;durP1;ratioP1;P1;durP2;ratioP2;P2;SDS_P1;SDS_P2;PMS_P1;PMS_P2;Temp;Humidity;BMP_temperature;BMP_pressure;BME280_temperature;BME280_humidity;BME280_pressure;Samples;Min_cycle;Max_cycle;Signal;HPM_P1;HPM_P2
2023/06/22 00:00:28;;;;;;;3.00;2.08;;;;;;;24.36;42.68;101754.84;5122338;28;20047;-63
2023/06/22 00:02:56;;;;;;;2.88;1.80;;;;;;;24.33;43.07;101759.81;5121908;28;20055;-63
2023/06/22 00:05:24;;;;;;;2.70;2.10;;;;;;;24.32;42.85;101771.91;5120449;28;20126;-63
2023/06/22 00:07:52;;;;;;;4.25;2.10;;;;;;;24.31;42.83;101772.19;5123198;28;20097;-62
2023/06/22 00:10:20;;;;;;;3.63;2.10;;;;;;;24.29;42.87;101772.50;5120385;28;20059;-61
2023/06/22 00:12:49;;;;;;;4.20;2.35;;;;;;;24.27;43.00;101769.22;5122500;28;20078;-62
2023/06/22 00:15:17;;;;;;;4.63;1.92;;;;;;;24.27;42.89;101771.13;5120166;28;20051;-61
2023/06/22 00:17:44;;;;;;;2.70;1.67;;;;;;;24.24;43.53;101777.22;5123242;28;20093;-63
2023/06/22 00:20:14;;;;;;;4.43;2.13;;;;;;;24.22;43.53;101777.50;5120325;28;20055;-63
2023/06/22 00:22:42;;;;;;;4.78;2.17;;;;;;;24.21;43.34;101777.81;5121378;28;20047;-63
2023/06/22 00:25:11;;;;;;;4.80;1.95;;;;;;;24.18;43.39;101770.97;5118095;28;20050;-63
2023/06/22 00:27:39;;;;;;;3.28;2.22;;;;;;;24.16;43.51;101767.69;5122970;28;20077;-63
2023/06/22 00:30:09;;;;;;;3.63;2.35;;;;;;;24.14;43.84;101761.66;5118590;28;20237;-63
2023/06/22 00:32:37;;;;;;;3.95;2.42;;;;;;;24.12;44.09;101763.88;5118153;28;20048;-63
2023/06/22 00:35:05;;;;;;;4.75;2.60;;;;;;;24.11;43.91;101765.00;5125512;28;20107;-64
2023/06/22 00:37:33;;;;;;;6.20;2.50;;;;;;;24.09;44.35;101764.47;5122192;28;20455;-63
2023/06/22 00:40:01;;;;;;;7.43;2.75;;;;;;;24.07;44.36;101758.44;5127204;28;20055;-63
2023/06/22 00:42:29;;;;;;;4.35;2.45;;;;;;;24.06;44.49;101766.97;5125765;28;20100;-62
2023/06/22 00:44:57;;;;;;;4.18;2.40;;;;;;;24.05;44.26;101754.34;5124652;28;20047;-62
2023/06/22 00:47:28;;;;;;;4.20;2.92;;;;;;;24.03;44.35;101751.88;5123858;28;20073;-62
2023/06/22 00:49:56;;;;;;;3.17;2.20;;;;;;;24.01;44.39;101752.19;5124757;28;20062;-63
2023/06/22 00:52:28;;;;;;;4.60;2.50;;;;;;;24.00;44.60;101757.97;5125402;28;20055;-63
2023/06/22 00:54:57;;;;;;;5.15;2.58;;;;;;;23.99;44.59;101761.81;5122438;28;20475;-62
2023/06/22 00:57:27;;;;;;;4.60;2.70;;;;;;;23.97;44.63;101756.63;5118998;28;20047;-62
2023/06/22 00:59:56;;;;;;;4.82;3.10;;;;;;;23.94;44.62;101754.44;5127170;28;20051;-63
2023/06/22 01:02:23;;;;;;;5.07;3.30;;;;;;;23.92;45.34;101753.91;5125493;28;20047;-61
2023/06/22 01:04:55;;;;;;;4.57;3.13;;;;;;;23.92;44.97;101753.09;5124379;28;20496;-63
2023/06/22 01:07:32;;;;;;;5.55;3.15;;;;;;;23.90;45.26;101756.13;5126313;28;20054;-64
2023/06/22 01:10:08;;;;;;;3.88;2.50;;;;;;;23.90;45.19;101760.81;5117433;28;20051;-61
2023/06/22 01:12:40;;;;;;;4.30;2.60;;;;;;;23.89;45.37;101745.44;5119997;28;20066;-62
2023/06/22 01:15:12;;;;;;;5.60;3.00;;;;;;;23.87;44.83;101748.47;5126415;28;20116;-63
2023/06/22 01:17:43;;;;;;;6.70;3.97;;;;;;;23.87;45.56;101753.16;5123915;28;20358;-63
2023/06/22 01:20:16;;;;;;;4.18;2.80;;;;;;;23.86;45.63;101748.75;5127015;28;20066;-62
2023/06/22 01:23:10;;;;;;;4.10;2.80;;;;;;;23.84;45.62;101749.06;5119919;28;20047;-62
2023/06/22 01:25:46;;;;;;;5.40;2.85;;;;;;;23.83;45.44;101760.31;5123211;28;20044;-62
2023/06/22 01:28:36;;;;;;;3.53;2.70;;;;;;;23.82;45.59;101762.25;5123336;28;20057;-63
2023/06/22 01:31:05;;;;;;;7.32;3.05;;;;;;;23.82;45.25;101764.19;5123971;28;20043;-62
2023/06/22 01:33:36;;;;;;;7.55;2.88;;;;;;;23.81;45.75;101759.78;5125260;28;20040;-62
2023/06/22 01:36:05;;;;;;;4.90;3.13;;;;;;;23.79;45.72;101751.84;5123387;28;20039;-64
2023/06/22 01:38:35;;;;;;;3.55;2.60;;;;;;;23.78;45.57;101752.94;5126060;28;20079;-62
2023/06/22 01:41:04;;;;;;;4.88;2.90;;;;;;;23.76;45.49;101746.94;5123310;28;20069;-63
2023/06/22 01:43:33;;;;;;;4.80;3.28;;;;;;;23.75;46.16;101741.72;5122311;28;20143;-62
2023/06/22 01:46:03;;;;;;;4.13;2.65;;;;;;;23.74;45.96;101740.91;5125087;28;20047;-64
2023/06/22 01:48:32;;;;;;;4.28;3.00;;;;;;;23.72;45.90;101748.63;5124899;28;20043;-63
2023/06/22 01:51:00;;;;;;;6.20;2.95;;;;;;;23.71;45.93;101741.47;5122257;28;20059;-63
2023/06/22 01:53:28;;;;;;;4.95;3.28;;;;;;;23.70;46.35;101742.59;5122832;28;20047;-63
2023/06/22 01:55:56;;;;;;;4.03;2.85;;;;;;;23.69;46.49;101744.53;5117808;28;20074;-62
2023/06/22 01:58:26;;;;;;;4.32;2.97;;;;;;;23.67;45.98;101743.16;5117540;28;20065;-64
2023/06/22 02:01:03;;;;;;;5.00;2.92;;;;;;;23.66;46.26;101747.84;5119254;28;20094;-62
2023/06/22 02:03:35;;;;;;;4.68;3.05;;;;;;;23.65;46.61;101740.72;5099938;28;20052;-62
2023/06/22 02:06:07;;;;;;;3.20;2.78;;;;;;;23.64;46.08;101738.25;5104412;28;20094;-62
2023/06/22 02:08:42;;;;;;;5.22;3.50;;;;;;;23.62;46.40;101733.06;5104301;28;20052;-63
2023/06/22 02:11:12;;;;;;;4.80;3.35;;;;;;;23.60;46.76;101734.44;5094920;28;20048;-63
2023/06/22 02:13:42;;;;;;;4.93;3.35;;;;;;;23.57;46.76;101733.09;5102060;28;20056;-62
2023/06/22 02:16:13;;;;;;;4.63;3.15;;;;;;;23.55;46.73;101732.56;5089241;28;20101;-63
2023/06/22 02:18:47;;;;;;;4.78;3.05;;;;;;;23.55;46.55;101731.75;5106165;28;20489;-63
2023/06/22 02:21:15;;;;;;;5.28;3.30;;;;;;;23.51;46.64;101734.22;5104006;28;20046;-63
2023/06/22 02:23:42;;;;;;;4.38;3.00;;;;;;;23.51;46.67;101731.47;5104740;28;20417;-64
2023/06/22 02:26:11;;;;;;;5.13;3.15;;;;;;;23.50;47.03;101727.09;5101153;28;20053;-64
2023/06/22 02:28:38;;;;;;;4.35;3.20;;;;;;;23.48;46.78;101726.56;5101919;28;20056;-62
2023/06/22 02:31:06;;;;;;;5.03;3.53;;;;;;;23.46;46.89;101723.28;5102365;28;20463;-65
2023/06/22 02:33:36;;;;;;;5.05;3.50;;;;;;;23.47;47.23;101721.34;5102515;28;20143;-63
2023/06/22 02:36:05;;;;;;;5.07;3.25;;;;;;;23.44;47.28;101725.50;5095905;28;20055;-65
2023/06/22 02:38:34;;;;;;;4.18;2.67;;;;;;;23.45;47.16;101718.06;5103411;28;20117;-63
2023/06/22 02:41:02;;;;;;;5.88;3.22;;;;;;;23.42;47.67;101715.91;5100769;28;20174;-63
2023/06/22 02:43:30;;;;;;;5.93;3.58;;;;;;;23.40;47.25;101709.88;5100408;28;20437;-63
2023/06/22 02:45:58;;;;;;;4.65;3.00;;;;;;;23.38;47.12;101707.44;5097826;28;20048;-64
2023/06/22 02:48:25;;;;;;;5.57;3.28;;;;;;;23.37;47.46;101709.34;5099016;28;20511;-63
2023/06/22 02:50:54;;;;;;;3.72;2.85;;;;;;;23.35;47.61;101714.31;5099494;28;20071;-63
2023/06/22 02:53:22;;;;;;;6.82;3.55;;;;;;;23.35;47.53;101708.00;5101187;28;20070;-64
2023/06/22 02:55:50;;;;;;;3.58;2.83;;;;;;;23.35;47.18;101713.50;5101891;28;20180;-63
2023/06/22 02:58:18;;;;;;;3.70;3.13;;;;;;;23.33;47.10;101719.25;5101287;28;20055;-64
2023/06/22 03:00:46;;;;;;;4.78;3.20;;;;;;;23.33;47.35;101713.78;5102841;28;20052;-63
2023/06/22 03:03:13;;;;;;;6.25;3.50;;;;;;;23.32;47.00;101703.91;5117715;28;20529;-63
2023/06/22 03:05:41;;;;;;;3.97;3.00;;;;;;;23.31;47.74;101696.78;5119226;28;20148;-63
2023/06/22 03:08:11;;;;;;;5.95;3.58;;;;;;;23.31;47.45;101699.53;5122633;28;20353;-64
2023/06/22 03:10:38;;;;;;;5.47;3.38;;;;;;;23.29;47.27;101693.50;5119303;28;20040;-63
2023/06/22 03:13:06;;;;;;;5.68;3.60;;;;;;;23.28;47.19;101696.53;5122243;28;20053;-63
2023/06/22 03:15:34;;;;;;;6.50;3.97;;;;;;;23.29;47.56;101689.94;5118524;28;20069;-63
2023/06/22 03:18:02;;;;;;;6.65;3.38;;;;;;;23.26;47.26;101680.38;5123517;28;20052;-63
2023/06/22 03:20:33;;;;;;;4.75;3.00;;;;;;;;;;5117608;28;20127;-63
2023/06/22 03:23:00;;;;;;;5.95;4.18;;;;;;;;;;5116084;28;20054;-63
2023/06/22 03:25:30;;;;;;;6.53;3.55;;;;;;;23.24;48.22;101676.28;5117549;28;20105;-64
2023/06/22 03:27:57;;;;;;;4.47;3.75;;;;;;;23.22;48.29;101673.00;5123687;28;20061;-64
2023/06/22 03:30:25;;;;;;;7.07;4.03;;;;;;;23.21;47.94;101669.44;5116761;28;20096;-64
2023/06/22 03:32:54;;;;;;;5.93;4.10;;;;;;;23.20;48.39;101661.50;5109897;28;20587;-64
2023/06/22 03:35:22;;;;;;;6.60;3.63;;;;;;;23.18;48.45;101666.44;5123223;28;20055;-64
2023/06/22 03:37:50;;;;;;;6.63;3.92;;;;;;;23.18;48.10;101670.00;5120605;28;20130;-64
2023/06/22 03:40:18;;;;;;;8.00;5.07;;;;;;;23.17;48.45;101659.31;5121011;28;20044;-63
2023/06/22 03:42:47;;;;;;;5.30;4.57;;;;;;;23.15;48.46;101658.78;5121624;28;20051;-63
2023/06/22 03:45:15;;;;;;;6.28;3.92;;;;;;;23.15;48.30;101653.31;5121124;28;20109;-63
2023/06/22 03:47:43;;;;;;;6.10;3.70;;;;;;;23.12;48.38;101654.69;5120711;28;20058;-63
2023/06/22 03:50:11;;;;;;;8.18;4.20;;;;;;;23.11;48.56;101661.28;5118776;28;20040;-63
2023/06/22 03:52:38;;;;;;;5.53;3.95;;;;;;;23.11;48.38;101663.22;5119952;28;20047;-62
2023/06/22 03:55:08;;;;;;;6.45;3.80;;;;;;;23.09;48.04;101663.50;5119409;28;20052;-62
2023/06/22 03:57:35;;;;;;;6.82;4.70;;;;;;;23.08;48.76;101664.59;5115949;28;20097;-63
2023/06/22 04:00:07;;;;;;;7.95;4.35;;;;;;;23.07;48.69;101665.72;5122418;28;20044;-64
2023/06/22 04:02:34;;;;;;;6.38;4.25;;;;;;;23.05;48.62;101667.91;5121316;28;20052;-64
2023/06/22 04:05:02;;;;;;;7.15;4.13;;;;;;;23.03;48.60;101672.88;5121971;28;20079;-63
2023/06/22 04:07:31;;;;;;;7.47;4.30;;;;;;;23.02;48.83;101668.50;5119861;28;20386;-63
2023/06/22 04:09:59;;;;;;;8.38;4.53;;;;;;;22.99;49.21;101666.31;5125167;28;20047;-63
2023/06/22 04:12:27;;;;;;;8.80;5.13;;;;;;;22.98;48.70;101670.16;5124184;28;20394;-63
2023/06/22 04:14:55;;;;;;;6.72;4.75;;;;;;;22.97;48.98;101668.53;5122226;28;20044;-63
2023/06/22 04:17:24;;;;;;;5.68;4.03;;;;;;;22.96;49.14;101661.41;5123027;28;20043;-62
2023/06/22 04:19:52;;;;;;;8.43;4.32;;;;;;;22.93;49.15;101657.31;5124172;28;20059;-64
2023/06/22 04:22:20;;;;;;;7.85;4.60;;;;;;;22.92;49.34;101660.34;5122859;28;20526;-62
2023/06/22 04:24:48;;;;;;;9.02;4.55;;;;;;;22.91;49.34;101661.44;5127198;28;20047;-63
2023/06/22 04:27:16;;;;;;;5.55;4.43;;;;;;;22.89;49.53;101663.66;5125522;28;20043;-64
2023/06/22 04:29:48;;;;;;;7.75;4.40;;;;;;;22.88;49.46;101664.75;5126325;28;20100;-64
2023/06/22 04:32:16;;;;;;;10.95;4.75;;;;;;;22.88;49.60;101668.31;5124317;28;20051;-63
2023/06/22 04:34:45;;;;;;;5.93;3.92;;;;;;;22.85;49.17;101666.13;5126934;28;20047;-64
2023/06/22 04:37:15;;;;;;;8.52;4.90;;;;;;;22.85;49.66;101665.31;5126303;28;20066;-61
2023/06/22 04:39:43;;;;;;;6.07;4.18;;;;;;;22.85;49.17;101659.84;5118514;28;20047;-62
2023/06/22 04:42:12;;;;;;;9.30;5.78;;;;;;;22.83;49.47;101665.59;5125358;28;20051;-63
2023/06/22 04:44:41;;;;;;;7.10;4.97;;;;;;;22.82;49.69;101669.44;5127503;28;20055;-63
2023/06/22 04:47:09;;;;;;;9.80;4.75;;;;;;;22.83;49.58;101670.25;5121321;28;20108;-64
2023/06/22 04:49:37;;;;;;;7.55;4.53;;;;;;;22.82;49.80;101665.88;5123060;28;20052;-63
2023/06/22 04:52:08;;;;;;;9.38;5.03;;;;;;;22.82;49.46;101674.09;5121923;28;20058;-63
2023/06/22 04:54:38;;;;;;;9.63;4.90;;;;;;;22.81;49.44;101667.00;5126506;28;20047;-63
2023/06/22 04:57:09;;;;;;;11.00;5.20;;;;;;;22.80;49.50;101657.94;5123424;28;20055;-64
2023/06/22 04:59:41;;;;;;;6.88;5.38;;;;;;;22.78;49.46;101662.03;5122532;28;20071;-64
2023/06/22 05:02:10;;;;;;;7.90;5.32;;;;;;;22.80;49.64;101665.34;5122883;28;20055;-64
2023/06/22 05:04:39;;;;;;;8.35;5.30;;;;;;;22.80;49.70;101662.59;5123274;28;21486;-67
2023/06/22 05:07:09;;;;;;;9.20;5.97;;;;;;;22.80;49.75;101673.56;5114411;28;20051;-63
2023/06/22 05:09:37;;;;;;;9.65;5.57;;;;;;;22.78;50.00;101662.84;5123921;28;20052;-63
2023/06/22 05:12:07;;;;;;;8.70;5.95;;;;;;;22.77;50.39;101663.97;5125819;28;20505;-64
2023/06/22 05:14:38;;;;;;;10.98;5.55;;;;;;;22.76;50.19;101658.75;5123942;28;20058;-62
2023/06/22 05:17:13;;;;;;;10.57;6.85;;;;;;;22.74;50.85;101653.56;5121233;28;20043;-64
2023/06/22 05:19:44;;;;;;;11.02;7.45;;;;;;;22.74;50.58;101650.81;5124395;28;20097;-64
2023/06/22 05:22:14;;;;;;;8.60;6.47;;;;;;;22.74;50.60;101659.06;5123604;28;20055;-67
2023/06/22 05:24:42;;;;;;;11.18;6.85;;;;;;;22.73;50.85;101658.22;5120831;28;20073;-67
2023/06/22 05:27:09;;;;;;;10.88;6.53;;;;;;;22.71;50.85;101657.69;5126418;28;20069;-66
2023/06/22 05:29:38;;;;;;;9.20;5.63;;;;;;;22.69;50.67;101661.81;5126245;28;20477;-68
2023/06/22 05:32:07;;;;;;;11.05;7.05;;;;;;;22.71;50.78;101671.41;5115349;28;20040;-67
2023/06/22 05:34:35;;;;;;;9.55;6.10;;;;;;;22.71;51.12;101662.34;4762166;28;10000051;-66
2023/06/22 05:37:03;;;;;;;9.75;6.72;;;;;;;22.70;50.95;101653.31;5116070;28;20048;-66
2023/06/22 05:39:32;;;;;;;7.63;5.05;;;;;;;22.69;50.43;101657.16;5119004;28;20101;-67
2023/06/22 05:42:00;;;;;;;9.57;5.28;;;;;;;22.72;50.72;101655.78;5117932;28;20047;-65
2023/06/22 05:44:27;;;;;;;6.90;4.75;;;;;;;22.72;50.27;101656.59;5123599;28;20351;-64
2023/06/22 05:46:55;;;;;;;7.28;4.72;;;;;;;22.72;50.41;101662.06;5110598;28;20044;-66
2023/06/22 05:49:24;;;;;;;6.88;4.32;;;;;;;22.73;50.42;101660.16;5123324;28;20109;-67
2023/06/22 05:51:52;;;;;;;7.70;4.57;;;;;;;22.71;50.25;101656.88;5113858;28;20055;-64
2023/06/22 05:54:20;;;;;;;9.18;5.97;;;;;;;22.71;50.86;101665.91;5119038;28;20132;-65
2023/06/22 05:56:49;;;;;;;9.00;5.15;;;;;;;22.71;50.42;101665.09;5121668;28;20573;-63
2023/06/22 05:59:17;;;;;;;10.93;6.57;;;;;;;22.70;51.09;101668.94;5118721;28;20131;-65
2023/06/22 06:01:45;;;;;;;8.93;5.75;;;;;;;22.67;51.14;101656.63;5111648;28;20066;-64
2023/06/22 06:04:12;;;;;;;10.30;5.68;;;;;;;22.65;50.78;101663.50;5119181;28;20111;-66
2023/06/22 06:06:40;;;;;;;10.27;4.70;;;;;;;22.68;50.68;101665.66;5119733;28;20048;-65
2023/06/22 06:09:08;;;;;;;9.00;4.22;;;;;;;22.69;50.51;101664.56;5121096;28;20338;-65
2023/06/22 06:11:36;;;;;;;7.25;4.65;;;;;;;22.68;50.51;101677.44;5115629;28;20070;-65
2023/06/22 06:14:05;;;;;;;9.60;6.50;;;;;;;22.68;51.15;101655.53;5118930;28;20435;-65
2023/06/22 06:16:33;;;;;;;7.20;4.93;;;;;;;22.67;51.09;101659.38;5118452;28;20051;-63
2023/06/22 06:19:01;;;;;;;9.70;6.45;;;;;;;22.67;52.13;101659.38;5115006;28;20109;-66
2023/06/22 06:21:28;;;;;;;8.45;5.43;;;;;;;22.69;51.54;101661.81;5113673;28;20051;-65
2023/06/22 06:23:58;;;;;;;15.90;6.10;;;;;;;22.69;51.91;101670.88;5126504;28;20055;-65
2023/06/22 06:26:29;;;;;;;9.32;5.28;;;;;;;22.68;51.25;101661.00;5125464;28;20043;-65
2023/06/22 06:28:58;;;;;;;9.05;5.25;;;;;;;22.71;51.36;101673.31;5119947;28;20125;-65
2023/06/22 06:31:28;;;;;;;7.05;5.00;;;;;;;22.70;51.50;101657.97;5114754;28;20054;-66
2023/06/22 06:33:56;;;;;;;9.90;4.85;;;;;;;22.69;51.32;101656.34;5124838;28;20058;-66
2023/06/22 06:36:24;;;;;;;9.25;5.28;;;;;;;22.70;51.58;101663.47;5125593;28;20047;-66
2023/06/22 06:38:52;;;;;;;8.02;5.05;;;;;;;22.69;51.08;101656.34;5124400;28;20051;-65
2023/06/22 06:41:20;;;;;;;8.38;5.10;;;;;;;22.70;51.33;101657.97;5123364;28;20043;-65
2023/06/22 06:43:48;;;;;;;8.35;5.30;;;;;;;22.69;51.66;101662.63;5121626;28;20051;-66
2023/06/22 06:46:16;;;;;;;7.30;5.35;;;;;;;22.68;51.46;101663.75;5122822;28;20073;-66
2023/06/22 06:48:45;;;;;;;9.13;6.05;;;;;;;22.69;51.62;101665.38;5126050;28;20048;-66
2023/06/22 06:51:13;;;;;;;10.57;5.18;;;;;;;22.70;51.59;101655.22;5119246;28;20073;-66
2023/06/22 06:53:41;;;;;;;11.20;5.43;;;;;;;22.61;51.66;101648.72;5120862;28;20059;-66
2023/06/22 06:56:10;;;;;;;8.68;4.93;;;;;;;22.70;51.26;101675.25;5119957;28;20069;-66
2023/06/22 06:58:38;;;;;;;8.60;5.53;;;;;;;22.71;51.58;101676.06;5121696;28;20051;-66
2023/06/22 07:01:06;;;;;;;9.90;4.93;;;;;;;22.71;51.30;101668.66;5122166;28;20035;-65
2023/06/22 07:03:34;;;;;;;5.40;3.45;;;;;;;22.72;51.30;101683.19;5124702;28;20051;-66
2023/06/22 07:06:04;;;;;;;5.43;3.42;;;;;;;22.73;51.23;101684.81;5110852;28;20044;-65
2023/06/22 07:08:31;;;;;;;5.22;3.80;;;;;;;22.73;50.85;101679.34;5122161;28;20048;-62
2023/06/22 07:11:00;;;;;;;7.22;4.20;;;;;;;22.73;50.90;101680.16;5121445;28;20055;-65
2023/06/22 07:13:28;;;;;;;8.30;4.30;;;;;;;22.73;50.94;101680.16;5121749;28;20051;-66
2023/06/22 07:15:56;;;;;;;10.32;4.93;;;;;;;22.75;50.95;101677.13;5118766;28;20059;-64
2023/06/22 07:18:24;;;;;;;7.28;5.10;;;;;;;22.76;51.13;101667.00;5124780;28;20143;-65
2023/06/22 07:20:52;;;;;;;7.57;5.20;;;;;;;22.76;51.07;101661.50;5121603;28;20492;-62
2023/06/22 07:23:21;;;;;;;6.85;5.03;;;;;;;22.75;50.83;101652.47;5122295;28;20048;-65
2023/06/22 07:25:49;;;;;;;6.20;4.30;;;;;;;22.75;50.73;101649.72;5121629;28;20050;-64
2023/06/22 07:28:17;;;;;;;6.47;4.47;;;;;;;22.76;50.97;101645.06;5124405;28;20128;-64
2023/06/22 07:30:44;;;;;;;6.82;4.93;;;;;;;22.76;50.82;101634.09;5124792;28;20051;-65
2023/06/22 07:33:12;;;;;;;9.80;5.30;;;;;;;22.76;51.21;101629.44;5120518;28;20096;-65
2023/06/22 07:35:40;;;;;;;7.40;5.85;;;;;;;22.74;51.51;101621.50;5125202;28;20452;-65
2023/06/22 07:38:08;;;;;;;12.57;6.05;;;;;;;22.73;51.71;101625.34;5118247;28;20044;-65
2023/06/22 07:40:38;;;;;;;9.50;6.03;;;;;;;22.73;51.56;101622.59;5124572;28;20148;-66
2023/06/22 07:43:05;;;;;;;8.02;5.50;;;;;;;22.72;51.69;101626.44;5119863;28;20120;-65
2023/06/22 07:45:34;;;;;;;7.50;4.95;;;;;;;22.72;51.72;101607.25;5123642;28;20056;-65
2023/06/22 07:48:03;;;;;;;9.23;5.07;;;;;;;22.73;51.69;101603.41;5123826;28;20052;-65
2023/06/22 07:50:31;;;;;;;6.55;4.65;;;;;;;22.73;51.91;101594.38;5120670;28;20555;-69
2023/06/22 07:52:59;;;;;;;7.38;4.90;;;;;;;22.73;51.93;101592.47;5118954;28;20044;-65
2023/06/22 07:55:27;;;;;;;11.45;5.55;;;;;;;22.73;51.72;101584.22;5120360;28;20048;-66
2023/06/22 07:57:58;;;;;;;9.00;5.43;;;;;;;22.74;51.86;101576.84;5111264;28;20382;-63
2023/06/22 08:00:25;;;;;;;8.30;6.30;;;;;;;22.74;52.04;101574.09;5124085;28;20082;-63
2023/06/22 08:02:53;;;;;;;9.90;6.82;;;;;;;22.73;52.46;101566.97;5119427;28;20055;-64
2023/06/22 08:05:21;;;;;;;9.05;5.90;;;;;;;22.72;52.17;101554.38;5118340;28;20048;-64
2023/06/22 08:07:50;;;;;;;8.13;5.53;;;;;;;22.73;52.10;101547.78;5124526;28;20047;-65
2023/06/22 08:10:18;;;;;;;10.00;6.22;;;;;;;22.74;52.08;101543.94;5124069;28;20047;-65
2023/06/22 08:12:46;;;;;;;8.00;5.50;;;;;;;22.73;52.21;101545.88;5116305;28;20370;-67
2023/06/22 08:15:15;;;;;;;10.25;7.00;;;;;;;22.74;52.23;101535.72;5119344;28;20051;-63
2023/06/22 08:17:45;;;;;;;12.40;7.38;;;;;;;22.73;52.82;101534.91;5119752;28;20048;-62
2023/06/22 08:20:13;;;;;;;10.40;7.72;;;;;;;22.72;52.96;101533.28;5122742;28;20057;-61
2023/06/22 08:22:41;;;;;;;14.88;8.88;;;;;;;22.71;53.39;101542.59;5116847;28;20097;-62
2023/06/22 08:25:09;;;;;;;12.95;8.25;;;;;;;22.71;53.17;101533.56;5117225;28;20040;-61
2023/06/22 08:27:37;;;;;;;10.70;8.35;;;;;;;22.69;53.68;101539.31;5114799;28;20047;-62
2023/06/22 08:30:07;;;;;;;14.70;8.77;;;;;;;22.68;53.89;101556.88;5120168;28;20073;-62
2023/06/22 08:32:36;;;;;;;14.45;9.35;;;;;;;22.68;53.89;101551.38;5110550;28;20055;-62
2023/06/22 08:35:06;;;;;;;15.20;9.60;;;;;;;22.68;53.90;101547.81;5123293;28;20043;-62
2023/06/22 08:37:35;;;;;;;11.35;9.20;;;;;;;22.67;53.81;101549.75;5121344;28;20048;-62
2023/06/22 08:40:05;;;;;;;15.00;9.27;;;;;;;22.68;53.96;101547.81;5112677;28;20051;-63
2023/06/22 08:42:33;;;;;;;11.15;9.25;;;;;;;22.68;53.78;101550.56;5116228;28;20078;-63
2023/06/22 08:45:01;;;;;;;11.20;9.00;;;;;;;22.66;53.76;101542.63;5116917;28;20147;-61
2023/06/22 08:47:29;;;;;;;11.20;8.80;;;;;;;22.67;53.83;101543.44;5120447;28;20047;-63
2023/06/22 08:49:58;;;;;;;12.57;9.18;;;;;;;22.67;54.02;101532.50;5117951;28;20051;-62
2023/06/22 08:52:26;;;;;;;14.77;9.00;;;;;;;22.67;54.36;101535.22;5120580;28;20035;-62
2023/06/22 08:54:54;;;;;;;10.60;8.60;;;;;;;22.68;54.31;101534.13;5119187;28;20048;-62
2023/06/22 08:57:22;;;;;;;13.25;9.32;;;;;;;22.68;54.12;101534.13;5122208;28;20100;-62
2023/06/22 08:59:52;;;;;;;12.38;9.30;;;;;;;22.69;54.32;101525.63;5118265;28;20044;-62
2023/06/22 09:02:20;;;;;;;11.80;8.48;;;;;;;22.70;54.11;101529.19;5119503;28;20112;-63
2023/06/22 09:04:48;;;;;;;14.75;10.05;;;;;;;22.70;54.38;101530.00;5116101;28;20135;-61
2023/06/22 09:07:22;;;;;;;13.95;9.57;;;;;;;22.71;53.92;101523.41;5121626;28;20143;-63
2023/06/22 09:09:50;;;;;;;17.58;8.90;;;;;;;22.72;54.25;101529.72;5121246;28;20039;-62
2023/06/22 09:12:19;;;;;;;12.85;8.60;;;;;;;22.73;53.96;101521.19;5112414;28;20052;-63
2023/06/22 09:14:47;;;;;;;10.95;8.90;;;;;;;22.73;53.88;101518.47;5121414;28;20056;-63
2023/06/22 09:17:15;;;;;;;9.52;7.22;;;;;;;22.74;53.97;101522.03;5122220;28;20043;-63
2023/06/22 09:19:43;;;;;;;14.95;8.20;;;;;;;22.76;54.01;101514.34;5119702;28;20047;-62
2023/06/22 09:22:11;;;;;;;15.07;9.32;;;;;;;22.76;53.97;101517.06;5119869;28;20101;-63
2023/06/22 09:24:40;;;;;;;13.23;8.75;;;;;;;22.77;54.02;101512.41;5119120;28;20097;-63
2023/06/22 09:27:08;;;;;;;14.15;9.50;;;;;;;22.77;54.01;101515.16;5119304;28;20073;-63
2023/06/22 09:29:36;;;;;;;14.32;9.57;;;;;;;22.78;53.60;101511.31;5120830;28;20519;-63
2023/06/22 09:32:04;;;;;;;15.40;8.88;;;;;;;22.79;53.86;101512.94;5118451;28;20044;-63
2023/06/22 09:34:32;;;;;;;14.60;8.38;;;;;;;22.78;53.76;101512.13;5122258;28;20492;-63
2023/06/22 09:37:00;;;;;;;13.23;7.40;;;;;;;22.80;53.85;101512.69;5117596;28;20055;-61
2023/06/22 09:39:28;;;;;;;11.07;7.82;;;;;;;22.79;53.67;101504.72;5120991;28;20040;-63
2023/06/22 09:41:59;;;;;;;13.15;9.05;;;;;;;22.78;53.72;101512.13;5118673;28;20048;-63
2023/06/22 09:44:27;;;;;;;13.48;9.20;;;;;;;22.79;53.88;101513.78;5123306;28;20047;-62
2023/06/22 09:46:54;;;;;;;13.27;8.77;;;;;;;22.78;53.84;101498.41;5120342;28;20104;-61
2023/06/22 09:49:22;;;;;;;13.15;9.85;;;;;;;22.78;53.69;101503.91;5116872;28;20047;-63
2023/06/22 09:52:11;;;;;;;17.45;9.00;;;;;;;22.78;53.88;101509.38;5120119;28;20126;-62
2023/06/22 09:54:39;;;;;;;17.00;9.07;;;;;;;22.78;53.94;101497.59;5121632;28;20043;-62
2023/06/22 09:57:08;;;;;;;12.30;8.93;;;;;;;22.78;53.66;101494.84;5117983;28;20212;-62
2023/06/22 09:59:36;;;;;;;11.15;8.00;;;;;;;22.78;53.75;101498.41;5116857;28;20071;-63
2023/06/22 10:02:04;;;;;;;12.52;7.93;;;;;;;22.78;53.89;101490.19;5120633;28;20074;-67
2023/06/22 10:04:32;;;;;;;15.30;8.95;;;;;;;22.72;53.86;101485.88;5126339;28;20051;-65
2023/06/22 10:07:00;;;;;;;10.48;8.02;;;;;;;22.79;53.81;101489.13;5122650;28;20047;-65
2023/06/22 10:09:28;;;;;;;9.82;6.70;;;;;;;22.80;53.76;101493.50;5122178;28;20047;-63
2023/06/22 10:11:56;;;;;;;13.60;7.07;;;;;;;22.82;53.63;101496.75;5117825;28;20134;-64
2023/06/22 10:14:27;;;;;;;8.30;6.43;;;;;;;22.82;53.50;101496.75;5123258;28;20044;-65
2023/06/22 10:16:54;;;;;;;10.35;6.03;;;;;;;22.84;53.57;101504.69;5118899;28;20115;-64
2023/06/22 10:19:26;;;;;;;8.32;6.13;;;;;;;22.84;53.16;101504.69;5125420;28;20584;-65
2023/06/22 10:21:55;;;;;;;9.80;6.15;;;;;;;22.85;53.21;101500.84;5125720;28;20051;-65
2023/06/22 10:24:23;;;;;;;10.45;6.03;;;;;;;22.85;53.39;101503.59;5120587;28;20127;-65
2023/06/22 10:26:50;;;;;;;10.77;7.85;;;;;;;22.85;53.31;101506.34;5124976;28;20074;-65
2023/06/22 10:29:18;;;;;;;7.18;5.45;;;;;;;22.85;53.71;101517.31;5123817;28;20052;-65
2023/06/22 10:31:47;;;;;;;8.98;6.05;;;;;;;22.84;53.78;101513.75;5123414;28;20070;-65
2023/06/22 10:34:15;;;;;;;8.27;5.35;;;;;;;22.85;53.76;101520.88;5125908;28;21288;-65
2023/06/22 10:36:43;;;;;;;8.68;5.55;;;;;;;22.85;53.66;101525.53;5123182;28;20043;-65
2023/06/22 10:39:11;;;;;;;9.10;6.35;;;;;;;22.85;53.63;101533.75;5122954;28;20051;-64
2023/06/22 10:41:38;;;;;;;8.23;5.93;;;;;;;22.85;53.56;101545.53;5122281;28;20415;-64
2023/06/22 10:44:06;;;;;;;8.00;5.18;;;;;;;22.85;53.67;101547.44;5113229;28;20073;-65
2023/06/22 10:46:34;;;;;;;9.35;4.50;;;;;;;22.85;52.98;101534.56;5116379;28;20051;-66
2023/06/22 10:49:03;;;;;;;8.80;4.93;;;;;;;22.86;53.13;101540.88;5122596;28;20055;-65
2023/06/22 10:51:32;;;;;;;9.88;4.57;;;;;;;22.85;53.65;101547.44;4767585;28;9999885;-64
2023/06/22 10:53:59;;;;;;;12.40;6.13;;;;;;;22.85;54.92;101547.44;5121047;28;20035;-64
2023/06/22 10:56:27;;;;;;;12.45;7.57;;;;;;;22.83;55.35;101536.78;5119373;28;20107;-64
2023/06/22 10:58:55;;;;;;;10.98;6.82;;;;;;;22.83;56.08;101546.91;5108287;28;20072;-64
2023/06/22 11:01:23;;;;;;;13.27;7.47;;;;;;;22.81;55.85;101547.22;5117456;28;20051;-64
2023/06/22 11:03:54;;;;;;;10.00;6.07;;;;;;;22.81;55.92;101538.16;5121001;28;20056;-65
2023/06/22 11:06:24;;;;;;;10.30;6.13;;;;;;;22.80;56.10;101536.53;5118884;28;20063;-64
2023/06/22 11:08:51;;;;;;;10.70;5.47;;;;;;;22.79;56.04;101546.69;5121561;28;20373;-65
2023/06/22 11:11:39;;;;;;;8.65;5.55;;;;;;;22.79;55.93;101562.28;5117031;28;20048;-65
2023/06/22 11:14:06;;;;;;;8.75;5.25;;;;;;;22.79;55.87;101575.97;5115326;28;20048;-64
2023/06/22 11:16:34;;;;;;;8.00;4.47;;;;;;;22.78;55.78;101572.41;5113493;28;20100;-64
2023/06/22 11:19:03;;;;;;;8.90;5.07;;;;;;;22.78;55.90;101552.41;5116295;28;20078;-64
2023/06/22 11:21:32;;;;;;;12.95;7.20;;;;;;;22.77;57.25;101546.13;5119230;28;20057;-65
2023/06/22 11:24:00;;;;;;;11.05;6.35;;;;;;;22.75;57.56;101548.31;5115702;28;20044;-65
2023/06/22 11:26:28;;;;;;;8.63;5.90;;;;;;;22.74;57.49;101566.69;5114955;28;20051;-67
2023/06/22 11:28:56;;;;;;;10.13;6.18;;;;;;;22.73;57.43;101561.50;5115474;28;20108;-64
2023/06/22 11:31:24;;;;;;;10.82;7.40;;;;;;;22.72;57.80;101559.84;5111473;28;20073;-64